createdAt,value
2023-02-16T00:00:30.067Z,1003.12
2023-02-16T00:01:30.072Z,1003.13
2023-02-16T00:02:30.095Z,1003.07
2023-02-16T00:03:30.172Z,1003.08
2023-02-16T00:04:30.042Z,1003.08
2023-02-16T00:05:30.022Z,1003.04
2023-02-16T00:06:30.012Z,1003.04
2023-02-16T00:07:30.004Z,1003.05
2023-02-16T00:08:30.010Z,1003.07
2023-02-16T00:09:29.994Z,1003.09
2023-02-16T00:10:29.985Z,1003.01
2023-02-16T00:11:29.972Z,1003.03
2023-02-16T00:12:29.951Z,1003.01
2023-02-16T00:13:30.966Z,1003.04
2023-02-16T00:14:29.966Z,1003.06
2023-02-16T00:15:29.944Z,1003.00
2023-02-16T00:16:29.947Z,1003.08
2023-02-16T00:17:29.983Z,1003.02
2023-02-16T00:18:29.921Z,1003.08
2023-02-16T00:19:30.832Z,1003.17
2023-02-16T00:20:29.901Z,1003.13
2023-02-16T00:21:29.893Z,1003.17
2023-02-16T00:22:29.889Z,1003.19
2023-02-16T00:23:29.890Z,1003.18
2023-02-16T00:25:19.658Z,1003.20
2023-02-16T00:26:19.656Z,1003.10
2023-02-16T00:27:19.653Z,1003.17
2023-02-16T00:28:19.656Z,1003.08
2023-02-16T00:29:19.641Z,1003.09
2023-02-16T00:30:19.668Z,1003.11
2023-02-16T00:31:19.779Z,1003.17
2023-02-16T00:32:19.790Z,1003.11
2023-02-16T00:33:19.629Z,1003.12
2023-02-16T00:34:20.693Z,1003.13
2023-02-16T00:35:20.698Z,1003.05
2023-02-16T00:36:20.675Z,1003.07
2023-02-16T00:37:20.669Z,1003.12
2023-02-16T00:38:20.700Z,1003.06
2023-02-16T00:39:20.659Z,1003.09
2023-02-16T00:40:20.649Z,1003.10
2023-02-16T00:41:20.632Z,1003.00
2023-02-16T00:42:20.629Z,1003.07
2023-02-16T00:43:20.634Z,1003.10
2023-02-16T00:44:20.610Z,1003.10
2023-02-16T00:45:20.619Z,1003.10
2023-02-16T00:46:20.633Z,1003.16
2023-02-16T00:47:20.590Z,1003.13
2023-02-16T00:48:20.601Z,1003.16
2023-02-16T00:49:20.591Z,1003.09
2023-02-16T00:50:20.563Z,1003.09
2023-02-16T00:51:26.053Z,1003.07
2023-02-16T00:52:23.522Z,1003.10
2023-02-16T00:53:20.554Z,1003.07
2023-02-16T00:54:20.551Z,1003.10
2023-02-16T00:55:20.522Z,1003.07
2023-02-16T00:56:20.515Z,1003.01
2023-02-16T00:57:20.512Z,1002.97
2023-02-16T00:58:20.524Z,1003.03
2023-02-16T00:59:21.112Z,1003.03
2023-02-16T01:00:20.485Z,1002.96
2023-02-16T01:01:20.499Z,1002.95
2023-02-16T01:02:21.104Z,1003.01
2023-02-16T01:03:20.629Z,1003.02
2023-02-16T01:04:21.140Z,1002.98
2023-02-16T01:05:21.188Z,1003.00
2023-02-16T01:06:20.438Z,1003.03
2023-02-16T01:07:20.434Z,1002.98
2023-02-16T01:08:20.422Z,1002.97
2023-02-16T01:09:21.021Z,1002.91
2023-02-16T01:10:20.420Z,1002.98
2023-02-16T01:11:20.399Z,1003.00
2023-02-16T01:12:20.401Z,1003.01
2023-02-16T01:13:20.385Z,1002.93
2023-02-16T01:14:20.370Z,1002.96
2023-02-16T01:15:20.372Z,1002.92
2023-02-16T01:16:20.350Z,1002.88
2023-02-16T01:17:20.354Z,1002.85
2023-02-16T01:18:21.150Z,1002.92
2023-02-16T01:19:20.319Z,1002.93
2023-02-16T01:20:20.324Z,1002.91
2023-02-16T01:21:20.353Z,1002.95
2023-02-16T01:22:20.332Z,1002.94
2023-02-16T01:23:22.045Z,1002.91
2023-02-16T01:24:21.020Z,1002.96
2023-02-16T01:25:20.279Z,1002.92
2023-02-16T01:26:20.329Z,1002.92
2023-02-16T01:27:20.270Z,1002.87
2023-02-16T01:28:21.026Z,1002.84
2023-02-16T01:29:20.287Z,1002.78
2023-02-16T01:30:20.271Z,1002.75
2023-02-16T01:32:08.215Z,1002.72
2023-02-16T01:33:08.100Z,1002.69
2023-02-16T01:34:08.104Z,1002.70
2023-02-16T01:35:08.086Z,1002.66
2023-02-16T01:36:08.087Z,1002.75
2023-02-16T01:37:09.179Z,1002.69
2023-02-16T01:38:09.171Z,1002.70
2023-02-16T01:39:09.168Z,1002.74
2023-02-16T01:40:09.139Z,1002.77
2023-02-16T01:41:09.970Z,1002.79
2023-02-16T01:42:09.135Z,1002.77
2023-02-16T01:43:09.131Z,1002.77
2023-02-16T01:44:09.126Z,1002.78
2023-02-16T01:45:09.111Z,1002.83
2023-02-16T01:46:10.034Z,1002.77
2023-02-16T01:47:09.110Z,1002.80
2023-02-16T01:48:10.044Z,1002.75
2023-02-16T01:49:10.970Z,1002.79
2023-02-16T01:50:09.120Z,1002.85
2023-02-16T01:51:09.064Z,1002.70
2023-02-16T01:52:09.064Z,1002.80
2023-02-16T01:53:09.971Z,1002.77
2023-02-16T01:54:09.044Z,1002.78
2023-02-16T01:55:09.034Z,1002.76
2023-02-16T01:56:09.024Z,1002.79
2023-02-16T01:57:09.047Z,1002.77
2023-02-16T01:58:09.546Z,1002.75
2023-02-16T01:59:08.992Z,1002.75
2023-02-16T02:00:09.009Z,1002.73
2023-02-16T02:01:09.970Z,1002.71
2023-02-16T02:02:09.101Z,1002.67
2023-02-16T02:03:09.067Z,1002.63
2023-02-16T02:04:09.009Z,1002.63
2023-02-16T02:05:09.558Z,1002.60
2023-02-16T02:06:09.478Z,1002.64
2023-02-16T02:07:08.931Z,1002.65
2023-02-16T02:08:08.930Z,1002.58
2023-02-16T02:09:08.957Z,1002.58
2023-02-16T02:10:08.932Z,1002.57
2023-02-16T02:11:08.911Z,1002.56
2023-02-16T02:12:08.920Z,1002.50
2023-02-16T02:13:08.944Z,1002.51
2023-02-16T02:14:08.896Z,1002.54
2023-02-16T21:24:29.168Z,998.99
2023-02-16T21:25:29.397Z,998.97
2023-02-16T21:26:31.034Z,999.09
2023-02-16T21:27:37.059Z,999.05
2023-02-16T21:28:51.064Z,999.04
2023-02-16T21:29:33.208Z,999.06
2023-02-16T21:30:32.083Z,999.06
2023-02-16T21:31:30.272Z,999.10
2023-02-16T21:32:30.187Z,999.05
2023-02-16T21:33:30.171Z,999.08
2023-02-16T21:34:30.177Z,999.08
2023-02-16T21:35:30.172Z,999.07
2023-02-16T21:36:30.168Z,999.08
2023-02-16T21:37:30.142Z,999.03
2023-02-16T21:38:30.129Z,999.04
2023-02-16T21:39:30.126Z,999.06
2023-02-16T21:40:30.122Z,999.08
2023-02-16T21:41:30.128Z,999.02
2023-02-16T21:42:30.111Z,998.98
2023-02-16T21:43:30.098Z,998.98
2023-02-16T21:44:30.114Z,999.01
2023-02-16T21:45:30.086Z,999.06
2023-02-16T21:46:30.079Z,999.02
2023-02-16T21:47:30.054Z,999.05
2023-02-16T21:48:31.050Z,998.99
2023-02-16T21:49:30.054Z,999.06
2023-02-16T21:50:30.044Z,999.04
2023-02-16T21:51:30.042Z,999.01
2023-02-16T21:52:30.025Z,999.02
2023-02-16T21:53:30.017Z,999.02
2023-02-16T21:54:30.032Z,998.99
2023-02-16T21:55:30.578Z,999.00
2023-02-16T21:56:30.038Z,998.99
2023-02-16T21:57:29.981Z,998.96
2023-02-16T21:58:29.980Z,998.95
2023-02-16T21:59:29.993Z,998.95
2023-02-16T22:00:29.964Z,998.93
2023-02-16T22:01:30.492Z,998.95
2023-02-16T22:02:29.954Z,998.99
2023-02-16T22:03:29.951Z,998.98
2023-02-16T22:04:29.943Z,998.99
2023-02-16T22:05:29.924Z,998.93
2023-02-16T22:06:29.926Z,998.89
2023-02-16T22:07:29.911Z,998.90
2023-02-16T22:08:29.893Z,998.82
2023-02-16T22:09:29.898Z,998.80
2023-02-16T22:10:29.876Z,998.84
2023-02-16T22:11:29.876Z,998.76
2023-02-16T22:12:29.872Z,998.74
2023-02-16T22:13:29.868Z,998.75
2023-02-16T22:14:29.846Z,998.69
2023-02-16T22:15:29.881Z,998.71
2023-02-16T22:16:30.626Z,998.71
2023-02-16T22:17:29.833Z,998.69
2023-02-16T22:18:29.853Z,998.68
2023-02-16T22:20:37.156Z,998.71
2023-02-16T22:21:37.150Z,998.72
2023-02-16T22:22:37.145Z,998.71
2023-02-16T22:23:42.046Z,998.79
2023-02-16T22:24:41.030Z,998.75
2023-02-16T22:25:41.156Z,998.72
2023-02-16T22:26:39.016Z,998.75
2023-02-16T22:27:37.114Z,998.71
2023-02-16T22:28:37.097Z,998.77
2023-02-16T22:29:37.094Z,998.74
2023-02-16T22:30:38.102Z,998.76
2023-02-16T22:31:37.260Z,998.80
2023-02-16T22:32:37.160Z,998.78
2023-02-16T22:33:39.024Z,998.81
2023-02-16T22:34:37.047Z,998.74
2023-02-16T22:35:37.041Z,998.75
2023-02-16T22:36:37.135Z,998.80
2023-02-16T22:37:37.043Z,998.80
2023-02-16T22:38:37.021Z,998.77
2023-02-16T22:39:37.024Z,998.77
2023-02-16T22:40:37.539Z,998.71
2023-02-16T22:41:36.994Z,998.73
2023-02-16T22:42:36.990Z,998.77
2023-02-16T22:43:38.092Z,998.78
2023-02-16T22:44:38.124Z,998.71
2023-02-16T22:45:38.094Z,998.77
2023-02-16T22:46:38.084Z,998.78
2023-02-16T22:47:38.056Z,998.82
2023-02-16T22:48:38.040Z,998.77
2023-02-16T22:49:38.025Z,998.76
2023-02-16T22:50:38.040Z,998.80
2023-02-16T22:51:38.626Z,998.81
2023-02-16T22:52:39.014Z,998.82
2023-02-16T22:53:38.006Z,998.78
2023-02-16T22:54:38.007Z,998.79
2023-02-16T22:55:37.983Z,998.76
2023-02-16T22:56:37.995Z,998.77
2023-02-16T22:57:37.979Z,998.81
2023-02-16T22:58:37.957Z,998.81
2023-02-16T22:59:37.964Z,998.80
2023-02-16T23:00:37.954Z,998.77
2023-02-16T23:01:37.952Z,998.79
2023-02-16T23:02:37.922Z,998.79
2023-02-16T23:03:37.960Z,998.72
2023-02-16T23:04:37.961Z,998.73
2023-02-16T23:05:37.918Z,998.72
2023-02-16T23:06:41.115Z,998.68
2023-02-16T23:07:37.885Z,998.65
2023-02-16T23:08:39.619Z,998.66
2023-02-16T23:09:37.871Z,998.62
2023-02-16T23:10:37.888Z,998.58
2023-02-16T23:12:24.743Z,998.60
2023-02-16T23:13:26.638Z,998.66
2023-02-16T23:14:24.718Z,998.58
2023-02-16T23:15:24.724Z,998.58
2023-02-16T23:16:24.773Z,998.54
2023-02-16T23:17:24.704Z,998.56
2023-02-16T23:18:24.698Z,998.56
2023-02-16T23:19:24.687Z,998.60
2023-02-16T23:20:25.766Z,998.60
2023-02-16T23:21:25.780Z,998.56
2023-02-16T23:22:25.757Z,998.64
2023-02-16T23:23:25.766Z,998.66
2023-02-16T23:24:25.766Z,998.58
2023-02-16T23:25:25.742Z,998.63
2023-02-16T23:26:25.744Z,998.59
2023-02-16T23:27:25.716Z,998.55
2023-02-16T23:28:25.718Z,998.63
2023-02-16T23:29:25.703Z,998.60
2023-02-16T23:30:25.756Z,998.60
2023-02-16T23:31:25.878Z,998.54
2023-02-16T23:32:25.674Z,998.52
2023-02-16T23:33:25.671Z,998.51
2023-02-16T23:34:25.668Z,998.53
2023-02-16T23:35:27.733Z,998.48
2023-02-16T23:36:29.154Z,998.47
2023-02-16T23:37:25.654Z,998.46
2023-02-16T23:38:25.630Z,998.45
2023-02-16T23:39:25.614Z,998.53
2023-02-16T23:40:26.608Z,998.40
2023-02-16T23:41:27.166Z,998.41
2023-02-16T23:42:25.641Z,998.38
2023-02-16T23:43:25.605Z,998.41
2023-02-16T23:44:25.579Z,998.38
2023-02-16T23:45:25.598Z,998.43
2023-02-16T23:46:29.221Z,998.45
2023-02-16T23:47:25.554Z,998.41
2023-02-16T23:48:25.556Z,998.52
2023-02-16T23:49:25.537Z,998.50
2023-02-16T23:50:25.552Z,998.49
2023-02-16T23:51:25.523Z,998.53
2023-02-16T23:52:25.512Z,998.45
2023-02-16T23:53:25.521Z,998.46
2023-02-16T23:54:26.189Z,998.51
2023-02-16T23:55:25.493Z,998.53
2023-02-16T23:56:25.481Z,998.49
2023-02-16T23:57:25.468Z,998.45
2023-02-16T23:58:25.472Z,998.46
2023-02-16T23:59:25.459Z,998.42
